sensor_id;sensor_type;location;lat;lon;timestamp;temperature;humidity
19206;DHT22;59358;52.134;5.596;2024-03-06T00:00:36;6.80;99.90
19206;DHT22;59358;52.134;5.596;2024-03-06T00:03:03;6.80;99.90
19206;DHT22;59358;52.134;5.596;2024-03-06T00:05:30;6.80;99.90
19206;DHT22;59358;52.134;5.596;2024-03-06T00:07:57;6.80;99.90
19206;DHT22;59358;52.134;5.596;2024-03-06T00:10:24;6.80;99.90
19206;DHT22;59358;52.134;5.596;2024-03-06T00:12:52;6.80;99.90
19206;DHT22;59358;52.134;5.596;2024-03-06T00:15:19;6.80;99.90
19206;DHT22;59358;52.134;5.596;2024-03-06T00:17:45;6.80;99.90
19206;DHT22;59358;52.134;5.596;2024-03-06T00:20:12;6.80;99.90
19206;DHT22;59358;52.134;5.596;2024-03-06T00:22:39;6.90;99.90
19206;DHT22;59358;52.134;5.596;2024-03-06T00:25:07;6.80;99.90
19206;DHT22;59358;52.134;5.596;2024-03-06T00:27:33;6.80;99.90
19206;DHT22;59358;52.134;5.596;2024-03-06T00:30:02;6.70;99.90
19206;DHT22;59358;52.134;5.596;2024-03-06T00:32:29;6.70;99.90
19206;DHT22;59358;52.134;5.596;2024-03-06T00:34:55;6.70;99.90
19206;DHT22;59358;52.134;5.596;2024-03-06T00:37:22;6.70;99.90
19206;DHT22;59358;52.134;5.596;2024-03-06T00:39:49;6.70;99.90
19206;DHT22;59358;52.134;5.596;2024-03-06T00:42:16;6.70;99.90
19206;DHT22;59358;52.134;5.596;2024-03-06T00:44:42;6.60;99.90
19206;DHT22;59358;52.134;5.596;2024-03-06T00:47:11;6.60;99.90
19206;DHT22;59358;52.134;5.596;2024-03-06T00:49:37;6.70;99.90
19206;DHT22;59358;52.134;5.596;2024-03-06T00:52:04;6.60;99.90
19206;DHT22;59358;52.134;5.596;2024-03-06T00:54:31;6.70;99.90
19206;DHT22;59358;52.134;5.596;2024-03-06T00:56:58;6.70;99.90
19206;DHT22;59358;52.134;5.596;2024-03-06T00:59:25;6.70;99.90
19206;DHT22;59358;52.134;5.596;2024-03-06T01:01:52;6.70;99.90
19206;DHT22;59358;52.134;5.596;2024-03-06T01:04:22;6.70;99.90
19206;DHT22;59358;52.134;5.596;2024-03-06T01:06:49;6.70;99.90
19206;DHT22;59358;52.134;5.596;2024-03-06T01:09:17;6.70;99.90
19206;DHT22;59358;52.134;5.596;2024-03-06T01:11:44;6.70;99.90
19206;DHT22;59358;52.134;5.596;2024-03-06T01:14:12;6.70;99.90
19206;DHT22;59358;52.134;5.596;2024-03-06T01:16:39;6.80;99.90
19206;DHT22;59358;52.134;5.596;2024-03-06T01:19:06;6.80;99.90
19206;DHT22;59358;52.134;5.596;2024-03-06T01:21:34;6.90;99.90
19206;DHT22;59358;52.134;5.596;2024-03-06T01:24:01;6.70;99.90
19206;DHT22;59358;52.134;5.596;2024-03-06T01:26:27;6.70;99.90
19206;DHT22;59358;52.134;5.596;2024-03-06T01:28:54;6.70;99.90
19206;DHT22;59358;52.134;5.596;2024-03-06T01:31:21;6.70;99.90
19206;DHT22;59358;52.134;5.596;2024-03-06T01:33:48;6.70;99.90
19206;DHT22;59358;52.134;5.596;2024-03-06T01:36:14;6.80;99.90
19206;DHT22;59358;52.134;5.596;2024-03-06T01:38:42;6.80;99.90
19206;DHT22;59358;52.134;5.596;2024-03-06T01:41:11;6.80;99.90
19206;DHT22;59358;52.134;5.596;2024-03-06T01:43:38;6.80;99.90
19206;DHT22;59358;52.134;5.596;2024-03-06T01:46:05;6.80;99.90
19206;DHT22;59358;52.134;5.596;2024-03-06T01:48:32;6.80;99.90
19206;DHT22;59358;52.134;5.596;2024-03-06T01:51:01;6.80;99.90
19206;DHT22;59358;52.134;5.596;2024-03-06T01:53:31;6.90;99.90
19206;DHT22;59358;52.134;5.596;2024-03-06T01:56:00;6.90;99.90
19206;DHT22;59358;52.134;5.596;2024-03-06T01:58:29;6.90;99.90
19206;DHT22;59358;52.134;5.596;2024-03-06T02:00:57;6.90;99.90
19206;DHT22;59358;52.134;5.596;2024-03-06T02:03:25;6.90;99.90
19206;DHT22;59358;52.134;5.596;2024-03-06T02:05:53;7.00;99.90
19206;DHT22;59358;52.134;5.596;2024-03-06T02:08:20;6.90;99.90
19206;DHT22;59358;52.134;5.596;2024-03-06T02:10:47;7.00;99.90
19206;DHT22;59358;52.134;5.596;2024-03-06T02:13:15;7.00;99.90
19206;DHT22;59358;52.134;5.596;2024-03-06T02:15:42;7.00;99.90
19206;DHT22;59358;52.134;5.596;2024-03-06T02:18:10;7.00;99.90
19206;DHT22;59358;52.134;5.596;2024-03-06T02:20:39;7.00;99.90
19206;DHT22;59358;52.134;5.596;2024-03-06T02:23:06;7.10;99.90
19206;DHT22;59358;52.134;5.596;2024-03-06T02:25:33;6.90;99.90
19206;DHT22;59358;52.134;5.596;2024-03-06T02:28:00;7.00;99.90
19206;DHT22;59358;52.134;5.596;2024-03-06T02:30:27;7.00;99.90
19206;DHT22;59358;52.134;5.596;2024-03-06T02:32:56;7.00;99.90
19206;DHT22;59358;52.134;5.596;2024-03-06T02:35:24;6.90;99.90
19206;DHT22;59358;52.134;5.596;2024-03-06T02:37:52;6.80;99.90
19206;DHT22;59358;52.134;5.596;2024-03-06T02:40:18;6.70;99.90
19206;DHT22;59358;52.134;5.596;2024-03-06T02:42:46;6.70;99.90
19206;DHT22;59358;52.134;5.596;2024-03-06T02:45:13;6.60;99.90
19206;DHT22;59358;52.134;5.596;2024-03-06T02:47:40;6.50;99.90
19206;DHT22;59358;52.134;5.596;2024-03-06T02:50:07;6.40;99.90
19206;DHT22;59358;52.134;5.596;2024-03-06T02:52:34;6.30;99.90
19206;DHT22;59358;52.134;5.596;2024-03-06T02:55:02;6.30;99.90
19206;DHT22;59358;52.134;5.596;2024-03-06T02:57:30;6.20;99.90
19206;DHT22;59358;52.134;5.596;2024-03-06T02:59:57;6.10;99.90
19206;DHT22;59358;52.134;5.596;2024-03-06T03:02:24;6.00;99.90
19206;DHT22;59358;52.134;5.596;2024-03-06T03:04:51;6.00;99.90
19206;DHT22;59358;52.134;5.596;2024-03-06T03:07:18;5.90;99.90
19206;DHT22;59358;52.134;5.596;2024-03-06T03:09:46;5.80;99.90
19206;DHT22;59358;52.134;5.596;2024-03-06T03:12:15;5.70;99.90
19206;DHT22;59358;52.134;5.596;2024-03-06T03:14:42;5.60;99.90
19206;DHT22;59358;52.134;5.596;2024-03-06T03:17:09;5.50;99.90
19206;DHT22;59358;52.134;5.596;2024-03-06T03:19:36;5.50;99.90
19206;DHT22;59358;52.134;5.596;2024-03-06T03:22:05;5.40;99.90
19206;DHT22;59358;52.134;5.596;2024-03-06T03:24:33;5.40;99.90
19206;DHT22;59358;52.134;5.596;2024-03-06T03:27:00;5.30;99.90
19206;DHT22;59358;52.134;5.596;2024-03-06T03:29:28;5.30;99.90
19206;DHT22;59358;52.134;5.596;2024-03-06T03:31:55;5.20;99.90
19206;DHT22;59358;52.134;5.596;2024-03-06T03:34:22;5.20;99.90
19206;DHT22;59358;52.134;5.596;2024-03-06T03:36:49;5.10;99.90
19206;DHT22;59358;52.134;5.596;2024-03-06T03:39:16;5.10;99.90
19206;DHT22;59358;52.134;5.596;2024-03-06T03:41:43;5.10;99.90
19206;DHT22;59358;52.134;5.596;2024-03-06T03:44:11;5.00;99.90
19206;DHT22;59358;52.134;5.596;2024-03-06T03:46:39;4.90;99.90
19206;DHT22;59358;52.134;5.596;2024-03-06T03:49:06;4.90;99.90
19206;DHT22;59358;52.134;5.596;2024-03-06T03:51:34;4.80;99.90
19206;DHT22;59358;52.134;5.596;2024-03-06T03:54:01;4.80;99.90
19206;DHT22;59358;52.134;5.596;2024-03-06T03:56:28;4.70;99.90
19206;DHT22;59358;52.134;5.596;2024-03-06T03:58:56;4.70;99.90
19206;DHT22;59358;52.134;5.596;2024-03-06T04:01:22;4.70;99.90
19206;DHT22;59358;52.134;5.596;2024-03-06T04:03:51;4.70;99.90
19206;DHT22;59358;52.134;5.596;2024-03-06T04:06:17;4.70;99.90
19206;DHT22;59358;52.134;5.596;2024-03-06T04:08:45;4.70;99.90
19206;DHT22;59358;52.134;5.596;2024-03-06T04:11:11;4.60;99.90
19206;DHT22;59358;52.134;5.596;2024-03-06T04:13:39;4.60;99.90
19206;DHT22;59358;52.134;5.596;2024-03-06T04:16:06;4.60;99.90
19206;DHT22;59358;52.134;5.596;2024-03-06T04:18:32;4.50;99.90
19206;DHT22;59358;52.134;5.596;2024-03-06T04:21:03;4.50;99.90
19206;DHT22;59358;52.134;5.596;2024-03-06T04:23:30;4.30;99.90
19206;DHT22;59358;52.134;5.596;2024-03-06T04:25:58;4.40;99.90
19206;DHT22;59358;52.134;5.596;2024-03-06T04:28:25;4.40;99.90
19206;DHT22;59358;52.134;5.596;2024-03-06T04:30:51;4.40;99.90
19206;DHT22;59358;52.134;5.596;2024-03-06T04:33:18;4.30;99.90
19206;DHT22;59358;52.134;5.596;2024-03-06T04:35:45;4.30;99.90
19206;DHT22;59358;52.134;5.596;2024-03-06T04:38:14;4.20;99.90
19206;DHT22;59358;52.134;5.596;2024-03-06T04:40:40;4.20;99.90
19206;DHT22;59358;52.134;5.596;2024-03-06T04:43:07;4.10;99.90
19206;DHT22;59358;52.134;5.596;2024-03-06T04:45:34;4.10;99.90
19206;DHT22;59358;52.134;5.596;2024-03-06T04:48:01;4.10;99.90
19206;DHT22;59358;52.134;5.596;2024-03-06T04:50:28;4.00;99.90
19206;DHT22;59358;52.134;5.596;2024-03-06T04:52:54;4.00;99.90
19206;DHT22;59358;52.134;5.596;2024-03-06T04:55:23;4.00;99.90
19206;DHT22;59358;52.134;5.596;2024-03-06T04:57:51;4.00;99.90
19206;DHT22;59358;52.134;5.596;2024-03-06T05:00:19;4.10;99.90
19206;DHT22;59358;52.134;5.596;2024-03-06T05:02:45;4.00;99.90
19206;DHT22;59358;52.134;5.596;2024-03-06T05:05:14;4.00;99.90
19206;DHT22;59358;52.134;5.596;2024-03-06T05:07:41;4.00;99.90
19206;DHT22;59358;52.134;5.596;2024-03-06T05:10:08;4.10;99.90
19206;DHT22;59358;52.134;5.596;2024-03-06T05:12:36;4.10;99.90
19206;DHT22;59358;52.134;5.596;2024-03-06T05:15:04;4.10;99.90
19206;DHT22;59358;52.134;5.596;2024-03-06T05:17:31;4.00;99.90
19206;DHT22;59358;52.134;5.596;2024-03-06T05:19:57;4.10;99.90
19206;DHT22;59358;52.134;5.596;2024-03-06T05:22:24;4.00;99.90
19206;DHT22;59358;52.134;5.596;2024-03-06T05:24:52;4.00;99.90
19206;DHT22;59358;52.134;5.596;2024-03-06T05:27:19;4.00;99.90
19206;DHT22;59358;52.134;5.596;2024-03-06T05:29:47;4.00;99.90
19206;DHT22;59358;52.134;5.596;2024-03-06T05:32:14;4.00;99.90
19206;DHT22;59358;52.134;5.596;2024-03-06T05:34:40;4.00;99.90
19206;DHT22;59358;52.134;5.596;2024-03-06T05:37:07;3.90;99.90
19206;DHT22;59358;52.134;5.596;2024-03-06T05:39:34;3.80;99.90
19206;DHT22;59358;52.134;5.596;2024-03-06T05:42:01;3.80;99.90
19206;DHT22;59358;52.134;5.596;2024-03-06T05:44:29;3.70;99.90
19206;DHT22;59358;52.134;5.596;2024-03-06T05:46:58;3.70;99.90
19206;DHT22;59358;52.134;5.596;2024-03-06T05:49:26;3.70;99.90
19206;DHT22;59358;52.134;5.596;2024-03-06T05:51:53;3.70;99.90
19206;DHT22;59358;52.134;5.596;2024-03-06T05:54:20;3.70;99.90
19206;DHT22;59358;52.134;5.596;2024-03-06T05:56:48;3.60;99.90
19206;DHT22;59358;52.134;5.596;2024-03-06T05:59:15;3.60;99.90
19206;DHT22;59358;52.134;5.596;2024-03-06T06:01:42;3.60;99.90
19206;DHT22;59358;52.134;5.596;2024-03-06T06:04:11;3.60;99.90
19206;DHT22;59358;52.134;5.596;2024-03-06T06:06:39;3.60;99.90
19206;DHT22;59358;52.134;5.596;2024-03-06T06:09:06;3.50;99.90
19206;DHT22;59358;52.134;5.596;2024-03-06T06:11:33;3.50;99.90
19206;DHT22;59358;52.134;5.596;2024-03-06T06:14:00;3.50;99.90
19206;DHT22;59358;52.134;5.596;2024-03-06T06:16:34;3.60;99.90
19206;DHT22;59358;52.134;5.596;2024-03-06T06:19:01;3.50;99.90
19206;DHT22;59358;52.134;5.596;2024-03-06T06:21:29;3.50;99.90
19206;DHT22;59358;52.134;5.596;2024-03-06T06:23:56;3.50;99.90
19206;DHT22;59358;52.134;5.596;2024-03-06T06:26:23;3.60;99.90
19206;DHT22;59358;52.134;5.596;2024-03-06T06:28:50;3.60;99.90
19206;DHT22;59358;52.134;5.596;2024-03-06T06:31:16;3.60;99.90
19206;DHT22;59358;52.134;5.596;2024-03-06T06:33:44;3.60;99.90
19206;DHT22;59358;52.134;5.596;2024-03-06T06:36:11;3.60;99.90
19206;DHT22;59358;52.134;5.596;2024-03-06T06:38:39;3.70;99.90
19206;DHT22;59358;52.134;5.596;2024-03-06T06:41:06;3.70;99.90
19206;DHT22;59358;52.134;5.596;2024-03-06T06:43:33;3.70;99.90
19206;DHT22;59358;52.134;5.596;2024-03-06T06:45:59;3.70;99.90
19206;DHT22;59358;52.134;5.596;2024-03-06T06:48:26;3.80;99.90
19206;DHT22;59358;52.134;5.596;2024-03-06T06:50:53;3.80;99.90
19206;DHT22;59358;52.134;5.596;2024-03-06T06:53:20;3.90;99.90
19206;DHT22;59358;52.134;5.596;2024-03-06T06:55:48;3.90;99.90
19206;DHT22;59358;52.134;5.596;2024-03-06T06:58:16;3.90;99.90
19206;DHT22;59358;52.134;5.596;2024-03-06T07:00:42;4.10;99.90
19206;DHT22;59358;52.134;5.596;2024-03-06T07:03:09;4.20;99.90
19206;DHT22;59358;52.134;5.596;2024-03-06T07:05:36;4.20;99.90
19206;DHT22;59358;52.134;5.596;2024-03-06T07:08:04;4.30;99.90
19206;DHT22;59358;52.134;5.596;2024-03-06T07:10:31;4.30;99.90
19206;DHT22;59358;52.134;5.596;2024-03-06T07:12:59;4.40;99.90
19206;DHT22;59358;52.134;5.596;2024-03-06T07:15:26;4.40;99.90
19206;DHT22;59358;52.134;5.596;2024-03-06T07:17:52;4.50;99.90
19206;DHT22;59358;52.134;5.596;2024-03-06T07:20:19;4.50;99.90
19206;DHT22;59358;52.134;5.596;2024-03-06T07:22:48;4.70;99.90
19206;DHT22;59358;52.134;5.596;2024-03-06T07:25:16;4.60;99.90
19206;DHT22;59358;52.134;5.596;2024-03-06T07:27:43;4.70;99.90
19206;DHT22;59358;52.134;5.596;2024-03-06T07:30:12;4.90;99.90
19206;DHT22;59358;52.134;5.596;2024-03-06T07:32:40;4.90;99.90
19206;DHT22;59358;52.134;5.596;2024-03-06T07:35:07;5.10;99.90
19206;DHT22;59358;52.134;5.596;2024-03-06T07:37:34;5.20;99.90
19206;DHT22;59358;52.134;5.596;2024-03-06T07:40:00;5.30;99.90
19206;DHT22;59358;52.134;5.596;2024-03-06T07:42:30;5.40;99.90
19206;DHT22;59358;52.134;5.596;2024-03-06T07:44:57;5.40;99.90
19206;DHT22;59358;52.134;5.596;2024-03-06T07:47:25;5.50;99.90
19206;DHT22;59358;52.134;5.596;2024-03-06T07:49:52;5.60;99.90
19206;DHT22;59358;52.134;5.596;2024-03-06T07:52:19;5.70;99.90
19206;DHT22;59358;52.134;5.596;2024-03-06T07:54:46;5.70;99.90
19206;DHT22;59358;52.134;5.596;2024-03-06T07:57:13;5.90;99.90
19206;DHT22;59358;52.134;5.596;2024-03-06T07:59:40;5.90;99.90
19206;DHT22;59358;52.134;5.596;2024-03-06T08:02:07;6.10;99.90
19206;DHT22;59358;52.134;5.596;2024-03-06T08:04:36;6.20;99.90
19206;DHT22;59358;52.134;5.596;2024-03-06T08:07:03;6.30;99.90
19206;DHT22;59358;52.134;5.596;2024-03-06T08:09:29;6.40;99.90
19206;DHT22;59358;52.134;5.596;2024-03-06T08:11:57;6.50;99.90
19206;DHT22;59358;52.134;5.596;2024-03-06T08:14:24;6.60;99.90
19206;DHT22;59358;52.134;5.596;2024-03-06T08:16:51;6.70;99.90
19206;DHT22;59358;52.134;5.596;2024-03-06T08:19:18;6.80;99.90
19206;DHT22;59358;52.134;5.596;2024-03-06T08:21:46;6.90;99.90
19206;DHT22;59358;52.134;5.596;2024-03-06T08:24:13;7.10;99.90
19206;DHT22;59358;52.134;5.596;2024-03-06T08:26:40;7.20;99.90
19206;DHT22;59358;52.134;5.596;2024-03-06T08:29:07;7.20;99.90
19206;DHT22;59358;52.134;5.596;2024-03-06T08:31:34;7.30;99.90
19206;DHT22;59358;52.134;5.596;2024-03-06T08:34:01;7.40;99.90
19206;DHT22;59358;52.134;5.596;2024-03-06T08:36:27;7.40;99.90
19206;DHT22;59358;52.134;5.596;2024-03-06T08:38:56;7.40;99.90
19206;DHT22;59358;52.134;5.596;2024-03-06T08:41:22;7.40;99.90
19206;DHT22;59358;52.134;5.596;2024-03-06T08:43:49;7.40;99.90
19206;DHT22;59358;52.134;5.596;2024-03-06T08:46:16;7.40;99.90
19206;DHT22;59358;52.134;5.596;2024-03-06T08:48:43;7.50;99.90
19206;DHT22;59358;52.134;5.596;2024-03-06T08:51:10;7.60;99.90
19206;DHT22;59358;52.134;5.596;2024-03-06T08:53:37;7.70;99.90
19206;DHT22;59358;52.134;5.596;2024-03-06T08:56:06;7.90;99.90
19206;DHT22;59358;52.134;5.596;2024-03-06T08:58:33;8.00;99.90
19206;DHT22;59358;52.134;5.596;2024-03-06T09:01:00;8.00;99.90
19206;DHT22;59358;52.134;5.596;2024-03-06T09:03:27;8.00;99.90
19206;DHT22;59358;52.134;5.596;2024-03-06T09:05:54;8.10;99.90
19206;DHT22;59358;52.134;5.596;2024-03-06T09:08:20;8.00;99.90
19206;DHT22;59358;52.134;5.596;2024-03-06T09:10:47;7.90;99.90
19206;DHT22;59358;52.134;5.596;2024-03-06T09:13:15;7.90;99.90
19206;DHT22;59358;52.134;5.596;2024-03-06T09:15:42;7.90;99.90
19206;DHT22;59358;52.134;5.596;2024-03-06T09:18:09;8.00;99.90
19206;DHT22;59358;52.134;5.596;2024-03-06T09:20:36;7.90;99.90
19206;DHT22;59358;52.134;5.596;2024-03-06T09:23:03;7.90;99.90
19206;DHT22;59358;52.134;5.596;2024-03-06T09:25:54;8.10;99.90
19206;DHT22;59358;52.134;5.596;2024-03-06T09:28:22;8.20;99.90
19206;DHT22;59358;52.134;5.596;2024-03-06T09:30:49;8.30;99.90
19206;DHT22;59358;52.134;5.596;2024-03-06T09:33:16;8.30;99.90
19206;DHT22;59358;52.134;5.596;2024-03-06T09:35:43;8.40;99.90
19206;DHT22;59358;52.134;5.596;2024-03-06T09:38:10;8.30;99.90
19206;DHT22;59358;52.134;5.596;2024-03-06T09:40:39;8.60;99.90
19206;DHT22;59358;52.134;5.596;2024-03-06T09:43:07;8.40;99.90
19206;DHT22;59358;52.134;5.596;2024-03-06T09:45:35;8.20;99.90
19206;DHT22;59358;52.134;5.596;2024-03-06T09:48:03;8.20;99.90
19206;DHT22;59358;52.134;5.596;2024-03-06T09:50:32;8.20;99.90
19206;DHT22;59358;52.134;5.596;2024-03-06T09:53:04;8.30;99.90
19206;DHT22;59358;52.134;5.596;2024-03-06T09:55:33;8.30;99.90
19206;DHT22;59358;52.134;5.596;2024-03-06T09:58:00;8.50;99.90
19206;DHT22;59358;52.134;5.596;2024-03-06T10:00:28;8.60;99.90
19206;DHT22;59358;52.134;5.596;2024-03-06T10:03:00;8.60;99.90
19206;DHT22;59358;52.134;5.596;2024-03-06T10:05:27;8.50;99.90
19206;DHT22;59358;52.134;5.596;2024-03-06T10:07:55;8.60;99.90
19206;DHT22;59358;52.134;5.596;2024-03-06T10:10:24;8.70;99.90
19206;DHT22;59358;52.134;5.596;2024-03-06T10:12:52;8.50;99.90
19206;DHT22;59358;52.134;5.596;2024-03-06T10:15:19;8.80;99.90
19206;DHT22;59358;52.134;5.596;2024-03-06T10:17:47;8.80;99.90
19206;DHT22;59358;52.134;5.596;2024-03-06T10:20:20;8.90;99.90
19206;DHT22;59358;52.134;5.596;2024-03-06T10:22:49;9.00;99.90
19206;DHT22;59358;52.134;5.596;2024-03-06T10:25:18;9.00;99.90
19206;DHT22;59358;52.134;5.596;2024-03-06T10:27:45;9.10;99.90
19206;DHT22;59358;52.134;5.596;2024-03-06T10:30:13;9.30;99.90
19206;DHT22;59358;52.134;5.596;2024-03-06T10:32:41;9.60;99.90
19206;DHT22;59358;52.134;5.596;2024-03-06T10:35:19;9.80;99.90
19206;DHT22;59358;52.134;5.596;2024-03-06T10:37:47;9.80;99.90
19206;DHT22;59358;52.134;5.596;2024-03-06T10:40:15;9.90;99.90
19206;DHT22;59358;52.134;5.596;2024-03-06T10:42:45;10.10;99.90
19206;DHT22;59358;52.134;5.596;2024-03-06T10:45:14;10.30;99.90
19206;DHT22;59358;52.134;5.596;2024-03-06T10:47:46;10.50;99.90
19206;DHT22;59358;52.134;5.596;2024-03-06T10:50:14;10.80;99.90
19206;DHT22;59358;52.134;5.596;2024-03-06T10:52:44;10.80;99.90
19206;DHT22;59358;52.134;5.596;2024-03-06T10:55:13;10.50;99.90
19206;DHT22;59358;52.134;5.596;2024-03-06T10:57:43;10.40;99.90
19206;DHT22;59358;52.134;5.596;2024-03-06T11:00:11;10.40;99.90
19206;DHT22;59358;52.134;5.596;2024-03-06T11:02:45;10.60;99.90
19206;DHT22;59358;52.134;5.596;2024-03-06T11:05:14;10.80;99.90
19206;DHT22;59358;52.134;5.596;2024-03-06T11:07:41;11.00;99.90
19206;DHT22;59358;52.134;5.596;2024-03-06T11:10:10;11.30;99.90
19206;DHT22;59358;52.134;5.596;2024-03-06T11:12:42;11.30;99.90
19206;DHT22;59358;52.134;5.596;2024-03-06T11:15:13;11.40;99.90
19206;DHT22;59358;52.134;5.596;2024-03-06T11:17:40;11.40;99.90
19206;DHT22;59358;52.134;5.596;2024-03-06T11:20:25;11.40;99.90
19206;DHT22;59358;52.134;5.596;2024-03-06T11:23:03;11.50;99.90
19206;DHT22;59358;52.134;5.596;2024-03-06T11:26:03;11.60;99.90
19206;DHT22;59358;52.134;5.596;2024-03-06T11:28:32;11.70;99.90
19206;DHT22;59358;52.134;5.596;2024-03-06T11:31:01;11.80;99.90
19206;DHT22;59358;52.134;5.596;2024-03-06T11:33:38;11.50;99.90
19206;DHT22;59358;52.134;5.596;2024-03-06T11:36:19;11.50;99.90
19206;DHT22;59358;52.134;5.596;2024-03-06T11:38:50;11.50;99.90
19206;DHT22;59358;52.134;5.596;2024-03-06T11:41:21;11.80;99.90
19206;DHT22;59358;52.134;5.596;2024-03-06T11:43:49;11.80;99.90
19206;DHT22;59358;52.134;5.596;2024-03-06T11:46:19;11.90;99.90
19206;DHT22;59358;52.134;5.596;2024-03-06T11:48:52;12.10;99.90
19206;DHT22;59358;52.134;5.596;2024-03-06T11:51:20;12.20;99.90
19206;DHT22;59358;52.134;5.596;2024-03-06T11:53:50;12.40;99.90
19206;DHT22;59358;52.134;5.596;2024-03-06T11:56:17;12.70;99.90
19206;DHT22;59358;52.134;5.596;2024-03-06T11:58:47;12.90;99.90
19206;DHT22;59358;52.134;5.596;2024-03-06T12:01:14;12.90;99.90
19206;DHT22;59358;52.134;5.596;2024-03-06T12:03:41;12.80;99.90
19206;DHT22;59358;52.134;5.596;2024-03-06T12:06:08;12.40;99.90
19206;DHT22;59358;52.134;5.596;2024-03-06T12:08:35;12.50;99.90
19206;DHT22;59358;52.134;5.596;2024-03-06T12:11:03;12.60;99.90
19206;DHT22;59358;52.134;5.596;2024-03-06T12:13:31;12.80;99.90
19206;DHT22;59358;52.134;5.596;2024-03-06T12:16:04;12.90;99.90
19206;DHT22;59358;52.134;5.596;2024-03-06T12:18:31;13.40;99.90
19206;DHT22;59358;52.134;5.596;2024-03-06T12:21:00;13.40;99.90
19206;DHT22;59358;52.134;5.596;2024-03-06T12:23:28;13.40;99.90
19206;DHT22;59358;52.134;5.596;2024-03-06T12:26:04;13.50;99.90
19206;DHT22;59358;52.134;5.596;2024-03-06T12:28:32;13.60;99.90
19206;DHT22;59358;52.134;5.596;2024-03-06T12:31:02;13.60;99.90
19206;DHT22;59358;52.134;5.596;2024-03-06T12:33:29;13.50;99.90
19206;DHT22;59358;52.134;5.596;2024-03-06T12:36:01;13.40;99.90
19206;DHT22;59358;52.134;5.596;2024-03-06T12:38:29;13.40;99.90
19206;DHT22;59358;52.134;5.596;2024-03-06T12:40:57;13.40;99.90
19206;DHT22;59358;52.134;5.596;2024-03-06T12:43:24;13.40;99.90
19206;DHT22;59358;52.134;5.596;2024-03-06T12:45:51;13.50;99.90
19206;DHT22;59358;52.134;5.596;2024-03-06T12:48:21;13.70;99.90
19206;DHT22;59358;52.134;5.596;2024-03-06T12:50:48;14.00;99.90
19206;DHT22;59358;52.134;5.596;2024-03-06T12:53:17;13.90;99.90
19206;DHT22;59358;52.134;5.596;2024-03-06T12:55:44;13.60;99.90
19206;DHT22;59358;52.134;5.596;2024-03-06T12:58:12;13.30;99.90
19206;DHT22;59358;52.134;5.596;2024-03-06T13:00:39;13.00;99.90
19206;DHT22;59358;52.134;5.596;2024-03-06T13:03:06;12.90;99.90
19206;DHT22;59358;52.134;5.596;2024-03-06T13:05:34;12.90;99.90
19206;DHT22;59358;52.134;5.596;2024-03-06T13:08:02;13.00;99.90
19206;DHT22;59358;52.134;5.596;2024-03-06T13:10:30;13.00;99.90
19206;DHT22;59358;52.134;5.596;2024-03-06T13:12:57;13.00;99.90
19206;DHT22;59358;52.134;5.596;2024-03-06T13:15:24;13.00;99.90
19206;DHT22;59358;52.134;5.596;2024-03-06T13:18:10;13.00;99.90
19206;DHT22;59358;52.134;5.596;2024-03-06T13:20:42;12.90;99.90
19206;DHT22;59358;52.134;5.596;2024-03-06T13:23:09;13.00;99.90
19206;DHT22;59358;52.134;5.596;2024-03-06T13:25:36;13.00;99.90
19206;DHT22;59358;52.134;5.596;2024-03-06T13:28:03;13.00;99.90
19206;DHT22;59358;52.134;5.596;2024-03-06T13:30:30;13.30;99.90
19206;DHT22;59358;52.134;5.596;2024-03-06T13:32:57;13.40;99.90
19206;DHT22;59358;52.134;5.596;2024-03-06T13:35:25;13.40;99.90
19206;DHT22;59358;52.134;5.596;2024-03-06T13:37:53;13.50;99.90
19206;DHT22;59358;52.134;5.596;2024-03-06T13:40:20;13.60;99.90
19206;DHT22;59358;52.134;5.596;2024-03-06T13:42:47;13.70;99.90
19206;DHT22;59358;52.134;5.596;2024-03-06T13:45:14;13.80;99.90
19206;DHT22;59358;52.134;5.596;2024-03-06T13:47:41;14.10;99.90
19206;DHT22;59358;52.134;5.596;2024-03-06T13:50:10;14.40;99.90
19206;DHT22;59358;52.134;5.596;2024-03-06T13:52:37;14.50;99.90
19206;DHT22;59358;52.134;5.596;2024-03-06T13:55:07;14.60;99.90
19206;DHT22;59358;52.134;5.596;2024-03-06T13:57:34;14.60;99.90
19206;DHT22;59358;52.134;5.596;2024-03-06T14:00:01;14.80;99.90
19206;DHT22;59358;52.134;5.596;2024-03-06T14:02:30;14.90;99.90
19206;DHT22;59358;52.134;5.596;2024-03-06T14:04:57;15.00;99.90
19206;DHT22;59358;52.134;5.596;2024-03-06T14:07:24;14.80;99.90
19206;DHT22;59358;52.134;5.596;2024-03-06T14:09:51;14.70;99.90
19206;DHT22;59358;52.134;5.596;2024-03-06T14:12:19;14.50;99.90
19206;DHT22;59358;52.134;5.596;2024-03-06T14:14:46;14.30;99.90
19206;DHT22;59358;52.134;5.596;2024-03-06T14:17:12;14.30;99.90
19206;DHT22;59358;52.134;5.596;2024-03-06T14:19:39;14.30;99.90
19206;DHT22;59358;52.134;5.596;2024-03-06T14:22:07;14.30;99.90
19206;DHT22;59358;52.134;5.596;2024-03-06T14:24:34;14.10;99.90
19206;DHT22;59358;52.134;5.596;2024-03-06T14:27:01;14.00;99.90
19206;DHT22;59358;52.134;5.596;2024-03-06T14:29:29;14.00;99.90
19206;DHT22;59358;52.134;5.596;2024-03-06T14:31:56;13.80;99.90
19206;DHT22;59358;52.134;5.596;2024-03-06T14:34:23;13.90;99.90
19206;DHT22;59358;52.134;5.596;2024-03-06T14:36:50;13.90;99.90
19206;DHT22;59358;52.134;5.596;2024-03-06T14:39:17;13.80;99.90
19206;DHT22;59358;52.134;5.596;2024-03-06T14:41:44;13.70;99.90
19206;DHT22;59358;52.134;5.596;2024-03-06T14:44:12;13.60;99.90
19206;DHT22;59358;52.134;5.596;2024-03-06T14:46:41;13.60;99.90
19206;DHT22;59358;52.134;5.596;2024-03-06T14:49:09;13.50;99.90
19206;DHT22;59358;52.134;5.596;2024-03-06T14:51:36;13.40;99.90
19206;DHT22;59358;52.134;5.596;2024-03-06T14:54:03;13.20;99.90
19206;DHT22;59358;52.134;5.596;2024-03-06T14:56:30;13.10;99.90
19206;DHT22;59358;52.134;5.596;2024-03-06T14:58:57;13.00;99.90
19206;DHT22;59358;52.134;5.596;2024-03-06T15:01:24;13.10;99.90
19206;DHT22;59358;52.134;5.596;2024-03-06T15:03:53;13.10;99.90
19206;DHT22;59358;52.134;5.596;2024-03-06T15:06:20;13.10;99.90
19206;DHT22;59358;52.134;5.596;2024-03-06T15:08:48;13.10;99.90
19206;DHT22;59358;52.134;5.596;2024-03-06T15:11:14;13.10;99.90
19206;DHT22;59358;52.134;5.596;2024-03-06T15:13:41;13.00;99.90
19206;DHT22;59358;52.134;5.596;2024-03-06T15:16:08;12.90;99.90
19206;DHT22;59358;52.134;5.596;2024-03-06T15:18:35;12.80;99.90
19206;DHT22;59358;52.134;5.596;2024-03-06T15:21:04;12.80;99.90
19206;DHT22;59358;52.134;5.596;2024-03-06T15:23:32;12.80;99.90
19206;DHT22;59358;52.134;5.596;2024-03-06T15:25:58;13.10;99.90
19206;DHT22;59358;52.134;5.596;2024-03-06T15:28:25;13.30;99.90
19206;DHT22;59358;52.134;5.596;2024-03-06T15:30:52;13.40;99.90
19206;DHT22;59358;52.134;5.596;2024-03-06T15:33:19;13.70;99.90
19206;DHT22;59358;52.134;5.596;2024-03-06T15:35:45;14.00;99.90
19206;DHT22;59358;52.134;5.596;2024-03-06T15:38:13;14.20;99.90
19206;DHT22;59358;52.134;5.596;2024-03-06T15:40:40;14.40;99.90
19206;DHT22;59358;52.134;5.596;2024-03-06T15:43:07;14.60;99.90